createdAt,value
2018-06-08T00:02:33.737Z,33.67
2018-06-08T00:06:27.763Z,35.98
2018-06-08T00:10:21.746Z,35.13
2018-06-08T00:14:15.759Z,33.95
2018-06-08T00:18:10.019Z,36.75
2018-06-08T00:22:05.372Z,36.54
2018-06-08T00:25:59.472Z,36.87
2018-06-08T00:29:53.977Z,38.98
2018-06-08T00:33:48.012Z,39.70
2018-06-08T00:37:42.035Z,44.67
2018-06-08T00:41:35.779Z,45.43
2018-06-08T00:45:32.174Z,47.87
2018-06-08T00:49:26.191Z,51.35
2018-06-08T00:53:20.171Z,55.67
2018-06-08T00:57:14.227Z,57.00
2018-06-08T01:01:08.290Z,58.25
2018-06-08T01:05:02.372Z,51.90
2018-06-08T01:08:56.372Z,55.28
2018-06-08T01:12:50.111Z,54.30
2018-06-08T01:16:43.988Z,51.65
2018-06-08T01:20:38.055Z,50.88
2018-06-08T01:24:34.079Z,53.00
2018-06-08T01:28:28.203Z,55.67
2018-06-08T01:32:22.181Z,50.30
2018-06-08T01:36:16.124Z,55.13
2018-06-08T01:40:10.187Z,53.13
2018-06-08T01:44:05.104Z,50.87
2018-06-08T01:47:59.019Z,53.52
2018-06-08T01:51:53.038Z,53.30
2018-06-08T01:55:48.631Z,55.15
2018-06-08T01:59:43.488Z,59.53
2018-06-08T02:03:37.483Z,55.17
2018-06-08T02:07:31.539Z,57.88
2018-06-08T02:11:25.608Z,58.75
2018-06-08T02:15:19.672Z,60.30
2018-06-08T02:19:13.188Z,62.08
2018-06-08T02:23:07.294Z,62.23
2018-06-08T02:27:01.375Z,60.25
2018-06-08T02:30:55.389Z,62.15
2018-06-08T02:34:49.511Z,60.33
2018-06-08T02:38:44.058Z,62.97
2018-06-08T02:42:38.060Z,64.12
2018-06-08T02:46:32.137Z,64.12
2018-06-08T02:50:26.155Z,60.80
2018-06-08T02:54:20.310Z,65.47
2018-06-08T02:58:14.334Z,68.67
2018-06-08T03:02:10.713Z,67.25
2018-06-08T03:06:07.113Z,69.35
2018-06-08T03:10:01.232Z,64.25
2018-06-08T03:13:55.285Z,70.97
2018-06-08T03:17:49.876Z,71.83
2018-06-08T03:21:44.287Z,77.30
2018-06-08T03:25:38.299Z,74.22
2018-06-08T03:29:32.286Z,76.62
2018-06-08T03:33:25.997Z,74.65
2018-06-08T03:37:19.822Z,72.80
2018-06-08T03:41:13.839Z,76.10
2018-06-08T03:45:09.365Z,75.00
2018-06-08T03:49:03.367Z,72.25
2018-06-08T03:52:57.400Z,72.05
2018-06-08T03:56:52.391Z,68.47
2018-06-08T04:00:46.403Z,71.53
2018-06-08T04:04:40.886Z,73.97
2018-06-08T04:08:34.903Z,74.90
2018-06-08T04:12:28.902Z,66.53
2018-06-08T04:16:23.023Z,71.70
2018-06-08T04:20:17.172Z,74.03
2018-06-08T04:24:11.290Z,68.70
2018-06-08T04:37:50.965Z,68.27
2018-06-08T05:04:31.531Z,73.05
2018-06-08T05:33:22.753Z,36.97
2018-06-08T05:37:16.810Z,34.45
2018-06-08T05:41:10.946Z,26.73
2018-06-08T05:45:05.207Z,28.55
2018-06-08T05:48:59.409Z,33.53
2018-06-08T05:52:53.372Z,28.32
2018-06-08T05:56:47.372Z,27.48
2018-06-08T06:00:41.490Z,30.88
2018-06-08T06:04:35.691Z,31.40
2018-06-08T06:08:29.727Z,24.35
2018-06-08T06:12:23.735Z,29.57
2018-06-08T06:16:17.734Z,25.48
2018-06-08T06:20:12.432Z,29.32
2018-06-08T06:24:06.427Z,25.88
2018-06-08T06:28:00.595Z,29.00
2018-06-08T06:31:54.720Z,28.83
2018-06-08T06:35:48.721Z,31.10
2018-06-08T06:39:42.903Z,35.13
2018-06-08T06:43:36.871Z,32.05
2018-06-08T06:47:31.071Z,32.80
2018-06-08T06:51:25.210Z,35.00
2018-06-08T06:55:19.551Z,33.95
2018-06-08T06:59:13.674Z,34.98
2018-06-08T07:03:07.747Z,31.42
2018-06-08T07:07:01.800Z,34.13
2018-06-08T07:10:55.890Z,36.53
2018-06-08T07:14:49.969Z,33.02
2018-06-08T07:18:44.255Z,33.00
2018-06-08T07:22:38.307Z,31.87
2018-06-08T07:26:32.629Z,32.63
2018-06-08T07:30:26.900Z,30.55
2018-06-08T07:34:26.302Z,30.35
2018-06-08T07:38:20.533Z,25.95
2018-06-08T07:42:14.613Z,28.35
2018-06-08T07:46:08.769Z,29.42
2018-06-08T07:50:02.990Z,26.20
2018-06-08T07:53:57.038Z,25.27
2018-06-08T07:57:51.193Z,26.45
2018-06-08T08:01:45.289Z,25.20
2018-06-08T08:05:39.309Z,25.03
2018-06-08T08:09:33.382Z,26.20
2018-06-08T08:13:27.523Z,24.63
2018-06-08T08:17:22.195Z,24.12
2018-06-08T08:21:19.818Z,23.67
2018-06-08T08:25:14.254Z,22.82
2018-06-08T08:29:08.506Z,21.93
2018-06-08T08:33:02.599Z,21.65
2018-06-08T08:36:57.566Z,22.20
2018-06-08T08:40:51.610Z,22.47
2018-06-08T08:44:46.046Z,21.13
2018-06-08T08:48:40.433Z,21.12
2018-06-08T08:52:34.504Z,21.35
2018-06-08T08:56:28.726Z,20.08
2018-06-08T09:00:23.123Z,22.17
2018-06-08T09:04:17.263Z,22.75
2018-06-08T09:08:11.370Z,23.50
2018-06-08T09:12:06.946Z,22.95
2018-06-08T09:16:00.930Z,21.25
2018-06-08T09:19:55.203Z,19.57
2018-06-08T09:23:49.252Z,18.98
2018-06-08T09:27:43.508Z,20.65
2018-06-08T09:31:37.621Z,21.07
2018-06-08T09:35:32.143Z,18.75
2018-06-08T09:39:26.207Z,20.20
2018-06-08T09:43:20.341Z,20.43
2018-06-08T09:47:14.514Z,22.22
2018-06-08T09:51:08.581Z,29.35
2018-06-08T09:55:02.639Z,28.95
2018-06-08T09:58:58.596Z,27.07
2018-06-08T10:02:52.731Z,24.80
2018-06-08T10:06:46.860Z,25.72
2018-06-08T10:10:41.208Z,26.30
2018-06-08T10:14:35.368Z,24.60
2018-06-08T10:18:29.431Z,25.23
2018-06-08T10:22:24.550Z,25.17
2018-06-08T10:26:18.649Z,26.05
2018-06-08T10:30:12.755Z,25.08
2018-06-08T10:34:07.727Z,26.02
2018-06-08T10:38:01.774Z,27.40
2018-06-08T10:41:56.026Z,28.67
2018-06-08T10:45:50.292Z,31.00
2018-06-08T10:49:44.738Z,28.57
2018-06-08T10:53:39.384Z,35.90
2018-06-08T10:57:33.977Z,42.75
2018-06-08T11:01:28.065Z,50.00
2018-06-08T11:05:22.667Z,53.52
2018-06-08T11:09:16.759Z,68.30
2018-06-08T11:13:11.111Z,61.20
2018-06-08T11:17:05.809Z,80.80
2018-06-08T11:21:00.317Z,59.27
2018-06-08T11:24:54.403Z,74.27
2018-06-08T11:28:48.529Z,73.07
2018-06-08T11:32:42.544Z,68.20
2018-06-08T11:36:36.927Z,44.23
2018-06-08T11:40:31.168Z,50.63
2018-06-08T11:44:25.431Z,47.20
2018-06-08T11:48:19.515Z,38.48
2018-06-08T11:52:13.669Z,39.85
2018-06-08T11:56:07.690Z,40.55
2018-06-08T12:00:02.152Z,40.23
2018-06-08T12:03:58.204Z,40.58
2018-06-08T12:07:54.285Z,40.63
2018-06-08T12:11:48.473Z,43.85
2018-06-08T12:15:43.559Z,41.48
2018-06-08T12:19:38.051Z,41.68
2018-06-08T12:23:33.014Z,42.40
2018-06-08T12:27:27.519Z,40.98
2018-06-08T12:31:22.655Z,39.92
2018-06-08T12:35:16.665Z,37.85
2018-06-08T12:39:16.616Z,39.73
2018-06-08T12:43:10.823Z,49.13
2018-06-08T12:47:05.686Z,54.15
2018-06-08T12:50:59.952Z,47.83
2018-06-08T12:54:54.814Z,42.75
2018-06-08T12:58:48.836Z,46.25
2018-06-08T13:02:43.488Z,50.95
2018-06-08T13:06:37.483Z,46.55
2018-06-08T13:10:31.583Z,42.30
2018-06-08T13:14:28.595Z,38.67
2018-06-08T13:18:22.274Z,39.08
2018-06-08T13:22:16.568Z,37.28
2018-06-08T13:26:10.829Z,34.33
2018-06-08T13:30:04.943Z,39.18
2018-06-08T13:33:59.134Z,36.50
2018-06-08T13:37:53.214Z,38.23
2018-06-08T13:41:47.428Z,42.88
2018-06-08T13:45:41.986Z,44.00
2018-06-08T13:49:35.992Z,41.13
2018-06-08T13:53:29.994Z,39.23
2018-06-08T13:57:23.560Z,38.38
2018-06-08T14:01:18.039Z,36.23
2018-06-08T14:05:12.171Z,40.28
2018-06-08T14:09:06.796Z,36.63
2018-06-08T14:13:01.402Z,38.83
2018-06-08T14:16:55.480Z,38.58
2018-06-08T14:20:48.925Z,39.10
2018-06-08T14:24:43.137Z,33.23
2018-06-08T14:28:37.223Z,37.10
2018-06-08T14:32:31.680Z,37.83
2018-06-08T14:36:29.580Z,37.13
2018-06-08T14:40:23.616Z,32.30
2018-06-08T14:44:17.780Z,42.38
2018-06-08T14:48:11.790Z,39.57
2018-06-08T14:52:05.958Z,37.85
2018-06-08T14:56:00.116Z,35.30
2018-06-08T14:59:54.262Z,42.10
2018-06-08T15:03:48.428Z,39.10
2018-06-08T15:07:42.465Z,33.00
2018-06-08T15:11:36.558Z,38.60
2018-06-08T15:15:30.690Z,42.05
2018-06-08T15:19:24.135Z,34.90
2018-06-08T15:23:18.471Z,35.50
2018-06-08T15:27:13.159Z,38.33
2018-06-08T15:31:07.379Z,39.30
2018-06-08T15:35:02.355Z,35.90
2018-06-08T15:38:58.112Z,33.63
2018-06-08T15:42:52.126Z,32.80
2018-06-08T15:46:46.254Z,31.87
2018-06-08T15:50:40.213Z,29.98
2018-06-08T15:54:34.411Z,29.72
2018-06-08T15:58:29.063Z,32.50
2018-06-08T16:02:23.912Z,32.48
2018-06-08T16:06:18.122Z,37.83
2018-06-08T16:10:12.247Z,38.33
2018-06-08T16:14:06.234Z,31.67
2018-06-08T16:18:00.415Z,35.35
2018-06-08T16:21:54.466Z,34.38
2018-06-08T16:25:49.130Z,33.92
2018-06-08T16:29:43.193Z,35.58
2018-06-08T16:33:38.616Z,33.00
2018-06-08T16:37:32.596Z,35.10
2018-06-08T16:41:26.900Z,35.20
2018-06-08T16:45:21.275Z,37.75
2018-06-08T16:49:15.316Z,34.48
2018-06-08T16:53:09.290Z,33.28
2018-06-08T16:57:03.519Z,33.45
2018-06-08T17:00:57.451Z,33.13
2018-06-08T17:04:51.689Z,34.27
2018-06-08T17:08:45.813Z,36.40
2018-06-08T17:12:39.904Z,35.78
2018-06-08T17:16:34.130Z,34.73
2018-06-08T17:20:27.634Z,31.68
2018-06-08T17:24:21.686Z,34.65
2018-06-08T17:28:15.917Z,35.40
2018-06-08T17:32:10.988Z,30.95
2018-06-08T17:36:05.104Z,37.15
2018-06-08T17:39:59.245Z,37.05
2018-06-08T17:43:53.623Z,39.03
2018-06-08T17:47:47.972Z,38.10
2018-06-08T17:51:42.063Z,35.65
2018-06-08T17:55:36.627Z,39.23
2018-06-08T17:59:30.667Z,38.78
2018-06-08T18:03:25.202Z,36.88
2018-06-08T18:07:19.220Z,36.93
2018-06-08T18:11:13.215Z,34.03
2018-06-08T18:15:07.420Z,35.98
2018-06-08T18:19:00.932Z,33.63
2018-06-08T18:22:55.551Z,34.75
2018-06-08T18:26:49.794Z,37.07
2018-06-08T18:30:43.756Z,36.00
2018-06-08T18:34:38.004Z,34.90
2018-06-08T18:38:32.696Z,41.50
2018-06-08T18:42:26.781Z,41.48
2018-06-08T18:46:20.791Z,36.50
2018-06-08T18:50:15.003Z,40.17
2018-06-08T18:54:10.461Z,36.88
2018-06-08T18:58:04.640Z,39.10
2018-06-08T19:01:58.836Z,38.88
2018-06-08T19:05:53.016Z,37.10
2018-06-08T19:09:49.257Z,39.90
2018-06-08T19:13:43.439Z,40.63
2018-06-08T19:17:38.193Z,38.70
2018-06-08T19:21:32.439Z,40.40
2018-06-08T19:25:26.557Z,38.13
2018-06-08T19:29:20.733Z,40.35
2018-06-08T19:33:15.953Z,41.30
2018-06-08T19:37:11.225Z,37.48
2018-06-08T19:41:05.206Z,40.20
2018-06-08T19:44:59.206Z,39.33
2018-06-08T19:48:53.231Z,38.73
2018-06-08T19:52:47.585Z,36.25
2018-06-08T19:56:41.519Z,39.23
2018-06-08T20:00:35.777Z,40.47
2018-06-08T20:04:30.183Z,38.90
2018-06-08T20:08:24.586Z,38.88
2018-06-08T20:12:18.647Z,38.88
2018-06-08T20:16:14.166Z,41.00
2018-06-08T20:20:08.988Z,40.23
2018-06-08T20:24:02.999Z,39.85
2018-06-08T20:27:56.975Z,37.95
2018-06-08T20:31:51.233Z,40.95
2018-06-08T20:35:46.355Z,43.63
2018-06-08T20:39:41.388Z,41.53
2018-06-08T20:43:35.706Z,43.42
2018-06-08T20:47:30.792Z,43.75
2018-06-08T20:51:24.811Z,43.73
2018-06-08T20:55:19.318Z,43.75
2018-06-08T20:59:13.562Z,40.97
2018-06-08T21:03:08.151Z,45.25
2018-06-08T21:07:02.261Z,43.50
2018-06-08T21:10:56.324Z,43.68
2018-06-08T21:14:50.391Z,46.50
2018-06-08T21:18:43.849Z,46.45
2018-06-08T21:22:38.014Z,41.37
2018-06-08T21:26:32.066Z,46.90
2018-06-08T21:30:26.140Z,42.23
2018-06-08T21:34:20.276Z,44.83
2018-06-08T21:38:14.289Z,45.60
2018-06-08T21:42:08.284Z,45.17
2018-06-08T21:46:02.373Z,47.93
2018-06-08T21:49:56.387Z,46.13
2018-06-08T21:53:51.276Z,45.23
2018-06-08T21:57:46.535Z,42.05
2018-06-08T22:01:40.640Z,47.43
2018-06-08T22:05:35.414Z,49.20
2018-06-08T22:09:30.161Z,49.18
2018-06-08T22:13:27.869Z,46.40
2018-06-08T22:17:23.592Z,46.70
2018-06-08T22:21:18.441Z,48.33
2018-06-08T22:25:12.491Z,47.95
2018-06-08T22:29:06.572Z,47.88
2018-06-08T22:33:01.054Z,48.70
2018-06-08T22:36:55.098Z,49.27
2018-06-08T22:40:49.342Z,51.73
2018-06-08T22:44:43.219Z,55.80
2018-06-08T22:48:37.056Z,54.83
2018-06-08T22:52:30.994Z,53.63
2018-06-08T22:56:25.370Z,53.00
2018-06-08T23:00:21.097Z,51.87
2018-06-08T23:04:15.106Z,53.92
2018-06-08T23:08:09.160Z,56.00
2018-06-08T23:12:03.223Z,55.60
2018-06-08T23:15:57.628Z,58.38
2018-06-08T23:19:51.681Z,56.28
2018-06-08T23:23:47.353Z,61.85
2018-06-08T23:27:41.324Z,53.90
2018-06-08T23:31:35.407Z,50.83
2018-06-08T23:35:29.444Z,55.93
2018-06-08T23:39:23.580Z,50.63
2018-06-08T23:43:18.426Z,51.70
2018-06-08T23:47:12.478Z,58.55
2018-06-08T23:51:06.673Z,55.23
2018-06-08T23:55:00.719Z,55.67
2018-06-08T23:58:55.198Z,58.25
